createdAt,value
2022-11-12T00:00:12.694Z,103014.59
2022-11-12T00:02:58.893Z,103019.19
2022-11-12T00:05:44.736Z,103005.94
2022-11-12T00:08:30.476Z,102999.28
2022-11-12T00:11:16.417Z,102999.50
2022-11-12T00:14:01.265Z,102999.44
2022-11-12T00:16:46.632Z,103000.97
2022-11-12T00:19:31.885Z,103000.38
2022-11-12T00:22:17.339Z,103010.09
2022-11-12T00:25:03.686Z,103009.38
2022-11-12T00:27:48.858Z,103017.78
2022-11-12T00:30:36.646Z,103014.41
2022-11-12T00:33:22.074Z,103015.06
2022-11-12T00:36:08.127Z,103020.53
2022-11-12T00:38:53.505Z,103029.38
2022-11-12T00:41:38.835Z,103032.59
2022-11-12T00:44:24.391Z,103037.47
2022-11-12T00:47:09.687Z,103026.00
2022-11-12T00:49:55.066Z,103020.59
2022-11-12T00:52:40.682Z,103028.53
2022-11-12T00:55:26.061Z,103023.31
2022-11-12T00:58:11.646Z,103032.59
2022-11-12T01:00:57.305Z,103027.59
2022-11-12T01:03:43.706Z,103023.28
2022-11-12T01:06:29.407Z,103021.00
2022-11-12T01:09:14.765Z,103021.09
2022-11-12T01:12:00.123Z,103020.03
2022-11-12T01:14:45.610Z,103016.03
2022-11-12T01:17:31.974Z,103005.06
2022-11-12T01:20:17.459Z,103008.34
2022-11-12T01:23:02.715Z,103011.91
2022-11-12T01:25:49.053Z,103003.94
2022-11-12T01:28:35.247Z,103000.50
2022-11-12T01:31:24.848Z,103004.84
2022-11-12T01:34:10.574Z,102984.88
2022-11-12T01:36:55.996Z,102992.72
2022-11-12T01:39:41.261Z,103006.06
2022-11-12T01:42:30.411Z,103002.78
2022-11-12T01:45:16.056Z,102988.53
2022-11-12T01:48:02.844Z,102985.91
2022-11-12T01:50:48.206Z,102988.19
2022-11-12T01:53:42.284Z,102982.34
2022-11-12T01:56:31.321Z,102977.66
2022-11-12T01:59:33.654Z,102972.22
2022-11-12T02:02:19.078Z,102973.22
2022-11-12T02:05:08.569Z,102973.59
2022-11-12T02:07:54.886Z,102974.75
2022-11-12T02:10:40.995Z,102973.44
2022-11-12T02:13:44.832Z,102972.66
2022-11-12T02:16:41.210Z,102977.84
2022-11-12T02:19:26.950Z,102970.25
2022-11-12T02:22:12.630Z,102967.56
2022-11-12T02:24:57.922Z,102962.84
2022-11-12T02:27:44.528Z,102967.56
2022-11-12T02:30:36.595Z,102964.38
2022-11-12T02:33:21.718Z,102956.25
2022-11-12T02:36:07.075Z,102958.38
2022-11-12T02:38:52.797Z,102956.16
2022-11-12T02:41:40.959Z,102957.84
2022-11-12T02:44:26.809Z,102953.44
2022-11-12T02:47:12.645Z,102949.03
2022-11-12T02:49:57.977Z,102941.22
2022-11-12T02:52:43.607Z,102942.19
2022-11-12T02:55:29.389Z,102934.72
2022-11-12T02:58:14.983Z,102925.41
2022-11-12T03:01:00.751Z,102916.41
2022-11-12T03:03:45.989Z,102930.03
2022-11-12T03:06:31.319Z,102925.19
2022-11-12T03:09:16.651Z,102931.72
2022-11-12T03:12:01.934Z,102923.06
2022-11-12T03:14:47.400Z,102932.94
2022-11-12T03:17:34.820Z,102929.50
2022-11-12T03:20:20.659Z,102923.97
2022-11-12T03:23:08.676Z,102911.50
2022-11-12T03:25:54.096Z,102915.56
2022-11-12T03:28:39.184Z,102920.63
2022-11-12T03:31:24.789Z,102916.22
2022-11-12T03:34:11.880Z,102910.16
2022-11-12T03:36:57.204Z,102917.84
2022-11-12T03:39:42.658Z,102904.81
2022-11-12T03:42:27.939Z,102908.50
2022-11-12T03:45:13.402Z,102903.91
2022-11-12T03:47:59.030Z,102915.78
2022-11-12T03:50:44.515Z,102914.03
2022-11-12T03:53:29.694Z,102908.53
2022-11-12T03:56:14.994Z,102918.06
2022-11-12T03:59:00.299Z,102912.53
2022-11-12T04:01:45.621Z,102909.41
2022-11-12T04:04:50.915Z,102917.59
2022-11-12T04:07:55.010Z,102914.75
2022-11-12T04:10:40.547Z,102909.41
2022-11-12T04:13:29.205Z,102910.00
2022-11-12T04:16:38.445Z,102911.44
2022-11-12T04:19:42.296Z,102903.81
2022-11-12T04:22:27.483Z,102904.44
2022-11-12T04:25:41.868Z,102905.44
2022-11-12T04:28:27.678Z,102902.78
2022-11-12T04:31:13.057Z,102887.59
2022-11-12T04:34:18.505Z,102892.53
2022-11-12T04:37:05.564Z,102882.13
2022-11-12T04:39:51.950Z,102875.59
2022-11-12T04:42:56.193Z,102880.38
2022-11-12T04:45:43.880Z,102891.19
2022-11-12T04:48:30.126Z,102885.00
2022-11-12T04:51:34.642Z,102881.25
2022-11-12T04:54:19.680Z,102886.50
2022-11-12T04:57:05.025Z,102885.66
2022-11-12T04:59:50.549Z,102869.44
2022-11-12T05:02:36.439Z,102875.94
2022-11-12T05:05:21.780Z,102875.50
2022-11-12T05:08:07.209Z,102868.09
2022-11-12T05:10:52.404Z,102866.69
2022-11-12T05:13:37.895Z,102862.34
2022-11-12T05:16:23.068Z,102873.81
2022-11-12T05:19:08.510Z,102871.78
2022-11-12T05:22:06.354Z,102871.34
2022-11-12T05:24:52.284Z,102873.06
2022-11-12T05:27:37.994Z,102865.28
2022-11-12T05:30:23.393Z,102852.03
2022-11-12T05:33:08.964Z,102853.78
2022-11-12T05:35:56.763Z,102840.59
2022-11-12T05:38:42.201Z,102849.94
2022-11-12T05:41:32.862Z,102849.47
2022-11-12T05:44:30.754Z,102843.59
2022-11-12T05:47:16.736Z,102848.63
2022-11-12T05:50:02.177Z,102861.41
2022-11-12T05:52:47.652Z,102858.16
2022-11-12T05:55:37.097Z,102861.38
2022-11-12T05:58:22.539Z,102854.44
2022-11-12T06:01:08.200Z,102858.41
2022-11-12T06:03:53.499Z,102853.91
2022-11-12T06:06:39.686Z,102860.78
2022-11-12T06:09:25.177Z,102852.59
2022-11-12T06:12:10.467Z,102854.88
2022-11-12T06:14:55.792Z,102856.81
2022-11-12T06:17:42.581Z,102861.41
2022-11-12T06:20:28.119Z,102864.91
2022-11-12T06:23:13.455Z,102851.34
2022-11-12T06:25:58.995Z,102858.66
2022-11-12T06:28:44.780Z,102863.84
2022-11-12T06:31:30.632Z,102868.69
2022-11-12T06:34:16.010Z,102872.19
2022-11-12T06:37:01.105Z,102873.47
2022-11-12T06:39:46.549Z,102888.03
2022-11-12T06:42:31.810Z,102879.47
2022-11-12T06:45:17.242Z,102874.97
2022-11-12T06:48:02.573Z,102880.25
2022-11-12T06:50:48.003Z,102876.13
2022-11-12T06:53:33.457Z,102884.28
2022-11-12T06:56:19.998Z,102868.22
2022-11-12T06:59:05.358Z,102882.13
2022-11-12T07:01:50.947Z,102874.09
2022-11-12T07:04:36.630Z,102872.66
2022-11-12T07:07:22.016Z,102880.66
2022-11-12T07:10:07.902Z,102886.22
2022-11-12T07:12:54.209Z,102880.19
2022-11-12T07:15:39.577Z,102872.66
2022-11-12T07:18:25.108Z,102873.63
2022-11-12T07:21:14.373Z,102841.28
2022-11-12T07:23:59.772Z,102856.91
2022-11-12T07:26:47.615Z,102859.00
2022-11-12T07:29:47.043Z,102862.16
2022-11-12T07:32:36.196Z,102859.50
2022-11-12T07:35:24.174Z,102863.50
2022-11-12T07:38:09.484Z,102867.38
2022-11-12T07:41:03.104Z,102865.34
2022-11-12T07:43:49.549Z,102859.81
2022-11-12T07:46:34.889Z,102863.34
2022-11-12T07:49:20.338Z,102868.66
2022-11-12T07:52:05.740Z,102857.75
2022-11-12T07:54:51.375Z,102855.81
2022-11-12T07:57:36.664Z,102856.78
2022-11-12T08:00:21.999Z,102853.00
2022-11-12T08:03:07.445Z,102838.41
2022-11-12T08:05:52.921Z,102844.72
2022-11-12T08:08:38.316Z,102832.88
2022-11-12T08:11:24.328Z,102827.88
2022-11-12T08:14:10.781Z,102833.53
2022-11-12T08:16:56.419Z,102837.22
2022-11-12T08:19:41.940Z,102837.59
2022-11-12T08:22:27.330Z,102837.91
2022-11-12T08:25:12.720Z,102827.03
2022-11-12T08:27:59.982Z,102838.91
2022-11-12T08:30:45.428Z,102844.22
2022-11-12T08:33:31.008Z,102837.91
2022-11-12T08:36:17.549Z,102837.41
2022-11-12T08:39:02.988Z,102843.59
2022-11-12T08:41:48.204Z,102841.81
2022-11-12T08:44:34.030Z,102846.50
2022-11-12T08:47:19.882Z,102847.38
2022-11-12T08:50:05.696Z,102848.34
2022-11-12T08:52:51.252Z,102852.66
2022-11-12T08:55:37.062Z,102861.34
2022-11-12T08:58:23.960Z,102845.03
2022-11-12T09:01:09.638Z,102848.78
2022-11-12T09:03:55.515Z,102841.06
2022-11-12T09:06:40.762Z,102851.47
2022-11-12T09:09:25.988Z,102850.66
2022-11-12T09:12:19.638Z,102841.00
2022-11-12T09:15:36.240Z,102845.91
2022-11-12T09:18:15.174Z,102853.91
2022-11-12T09:21:04.817Z,102840.19
2022-11-12T09:23:50.032Z,102830.78
2022-11-12T09:26:35.722Z,102842.38
2022-11-12T09:29:21.138Z,102834.91
2022-11-12T09:32:06.551Z,102830.63
2022-11-12T09:34:52.006Z,102829.66
2022-11-12T09:37:38.349Z,102836.91
2022-11-12T09:40:37.636Z,102832.88
2022-11-12T09:43:34.517Z,102824.81
2022-11-12T09:46:29.520Z,102824.94
2022-11-12T09:49:19.120Z,102821.63
2022-11-12T09:52:21.553Z,102819.59
2022-11-12T09:55:34.935Z,102807.91
2022-11-12T09:58:20.612Z,102805.63
2022-11-12T10:01:38.854Z,102809.34
2022-11-12T10:04:43.631Z,102811.28
2022-11-12T10:07:49.022Z,102808.75
2022-11-12T10:10:54.827Z,102800.41
2022-11-12T10:14:19.559Z,102802.41
2022-11-12T10:17:18.670Z,102791.50
2022-11-12T10:20:20.846Z,102782.91
2022-11-12T10:23:17.616Z,102780.53
2022-11-12T10:26:12.772Z,102787.47
2022-11-12T10:29:26.126Z,102773.16
2022-11-12T10:32:15.739Z,102780.09
2022-11-12T10:35:01.094Z,102779.31
2022-11-12T10:38:04.669Z,102772.66
2022-11-12T10:40:49.770Z,102763.47
2022-11-12T10:43:35.321Z,102761.91
2022-11-12T10:46:24.015Z,102761.16
2022-11-12T10:49:16.160Z,102768.88
2022-11-12T10:52:01.242Z,102756.69
2022-11-12T10:54:50.975Z,102743.13
2022-11-12T10:57:39.507Z,102748.28
2022-11-12T11:00:26.404Z,102736.19
2022-11-12T11:03:22.519Z,102741.41
2022-11-12T11:06:14.097Z,102737.31
2022-11-12T11:09:20.744Z,102736.41
2022-11-12T11:12:29.711Z,102734.91
2022-11-12T11:15:21.824Z,102725.03
2022-11-12T11:18:11.890Z,102717.63
2022-11-12T11:21:07.051Z,102726.34
2022-11-12T11:24:26.696Z,102719.16
2022-11-12T11:27:31.208Z,102704.66
2022-11-12T11:30:19.730Z,102710.66
2022-11-12T11:33:25.827Z,102709.69
2022-11-12T11:36:26.339Z,102702.63
2022-11-12T11:39:25.521Z,102700.03
2022-11-12T11:42:40.854Z,102692.22
2022-11-12T11:45:35.587Z,102686.25
2022-11-12T11:48:53.216Z,102688.84
2022-11-12T11:52:10.783Z,102677.44
2022-11-12T11:54:59.662Z,102684.34
2022-11-12T11:57:57.597Z,102673.28
2022-11-12T12:00:43.108Z,102673.47
2022-11-12T12:04:03.531Z,102666.06
2022-11-12T12:07:21.036Z,102672.47
2022-11-12T12:10:46.296Z,102665.63
2022-11-12T12:13:47.326Z,102654.34
2022-11-12T12:17:03.071Z,102649.75
2022-11-12T12:20:14.882Z,102648.72
2022-11-12T12:23:06.238Z,102636.44
2022-11-12T12:25:59.028Z,102638.06
2022-11-12T12:28:57.840Z,102637.22
2022-11-12T12:31:52.811Z,102625.91
2022-11-12T12:34:59.555Z,102616.66
2022-11-12T12:37:53.956Z,102618.56
2022-11-12T12:40:47.254Z,102612.50
2022-11-12T12:43:37.244Z,102610.66
2022-11-12T12:46:29.321Z,102614.94
2022-11-12T12:49:19.045Z,102599.69
2022-11-12T12:52:04.679Z,102604.22
2022-11-12T12:54:56.658Z,102596.47
2022-11-12T12:57:42.196Z,102592.06
2022-11-12T13:00:48.046Z,102593.78
2022-11-12T13:03:43.007Z,102592.09
2022-11-12T13:06:40.279Z,102589.50
2022-11-12T13:09:27.050Z,102574.00
2022-11-12T13:12:12.682Z,102576.06
2022-11-12T13:15:14.701Z,102569.81
2022-11-12T13:17:59.755Z,102577.53
2022-11-12T13:21:31.102Z,102574.84
2022-11-12T13:24:16.847Z,102579.94
2022-11-12T13:27:02.479Z,102576.81
2022-11-12T13:29:48.143Z,102568.31
2022-11-12T13:32:36.602Z,102571.81
2022-11-12T13:35:26.262Z,102572.66
2022-11-12T13:38:16.016Z,102572.56
2022-11-12T13:41:09.786Z,102574.22
2022-11-12T13:43:56.757Z,102580.25
2022-11-12T13:46:43.849Z,102585.25
2022-11-12T13:49:30.401Z,102579.19
2022-11-12T13:52:18.921Z,102573.91
2022-11-12T13:55:07.141Z,102569.59
2022-11-12T13:57:53.908Z,102574.00
2022-11-12T14:00:40.062Z,102570.47
2022-11-12T14:03:29.906Z,102550.31
2022-11-12T14:06:43.058Z,102566.28
2022-11-12T14:09:40.901Z,102552.50
2022-11-12T14:12:29.564Z,102560.19
2022-11-12T14:20:02.620Z,102557.41
2022-11-12T14:22:48.579Z,102549.41
2022-11-12T14:25:34.353Z,102535.31
2022-11-12T14:28:34.757Z,102539.66
2022-11-12T14:31:24.470Z,102545.72
2022-11-12T14:34:21.641Z,102540.22
2022-11-12T14:37:37.197Z,102531.53
2022-11-12T14:40:27.718Z,102534.00
2022-11-12T14:43:38.224Z,102526.97
2022-11-12T14:46:30.729Z,102526.97
2022-11-12T14:49:29.853Z,102531.34
2022-11-12T14:52:22.801Z,102530.75
2022-11-12T14:55:17.606Z,102522.31
2022-11-12T14:58:04.865Z,102521.44
2022-11-12T15:00:52.902Z,102517.59
2022-11-12T15:03:38.714Z,102508.81
2022-11-12T15:06:31.010Z,102520.25
2022-11-12T15:09:19.088Z,102512.44
2022-11-12T15:12:14.564Z,102515.09
2022-11-12T15:15:18.927Z,102501.09
2022-11-12T15:18:26.359Z,102503.63
2022-11-12T15:21:11.983Z,102499.34
2022-11-12T15:24:27.303Z,102498.41
2022-11-12T15:27:38.582Z,102482.59
2022-11-12T15:30:28.377Z,102496.69
2022-11-12T15:33:14.001Z,102493.25
2022-11-12T15:36:01.906Z,102494.09
2022-11-12T15:38:49.893Z,102488.84
2022-11-12T15:41:35.235Z,102491.41
2022-11-12T15:44:20.871Z,102493.34
2022-11-12T15:47:14.266Z,102487.19
2022-11-12T15:49:59.497Z,102493.22
2022-11-12T15:52:45.565Z,102490.53
2022-11-12T15:55:32.933Z,102485.03
2022-11-12T15:58:27.118Z,102475.94
2022-11-12T16:01:12.868Z,102473.19
2022-11-12T16:03:58.549Z,102472.94
2022-11-12T16:06:44.145Z,102458.97
2022-11-12T16:09:29.759Z,102468.09
2022-11-12T16:12:16.046Z,102474.13
2022-11-12T16:15:02.384Z,102490.41
2022-11-12T16:17:48.850Z,102456.72
2022-11-12T16:20:36.465Z,102465.72
2022-11-12T16:23:22.324Z,102476.16
2022-11-12T16:26:09.443Z,102461.13
2022-11-12T16:28:54.905Z,102460.56
2022-11-12T16:31:43.001Z,102461.44
2022-11-12T16:34:29.480Z,102448.72
2022-11-12T16:37:16.291Z,102455.97
2022-11-12T16:40:01.931Z,102442.00
2022-11-12T16:42:47.331Z,102451.84
2022-11-12T16:45:36.251Z,102451.03
2022-11-12T16:48:23.002Z,102459.38
2022-11-12T16:51:19.076Z,102446.66
2022-11-12T16:54:04.976Z,102459.13
2022-11-12T16:56:50.624Z,102438.59
2022-11-12T16:59:36.095Z,102442.91
2022-11-12T17:02:21.613Z,102451.94
2022-11-12T17:05:16.473Z,102450.59
2022-11-12T17:08:01.733Z,102438.75
2022-11-12T17:10:47.324Z,102437.34
2022-11-12T17:13:32.969Z,102433.63
2022-11-12T17:16:18.659Z,102416.47
2022-11-12T17:19:05.939Z,102415.97
2022-11-12T17:21:52.023Z,102417.72
2022-11-12T17:24:37.428Z,102419.78
2022-11-12T17:27:23.432Z,102419.28
2022-11-12T17:30:09.358Z,102411.56
2022-11-12T17:32:54.857Z,102408.50
2022-11-12T17:35:40.400Z,102407.75
2022-11-12T17:38:25.652Z,102397.84
2022-11-12T17:41:11.816Z,102402.34
2022-11-12T17:43:58.704Z,102408.84
2022-11-12T17:46:48.539Z,102409.75
2022-11-12T17:49:33.847Z,102411.28
2022-11-12T17:52:19.269Z,102411.44
2022-11-12T17:55:05.169Z,102402.63
2022-11-12T17:57:50.870Z,102389.78
2022-11-12T18:00:37.822Z,102391.59
2022-11-12T18:03:24.164Z,102368.75
2022-11-12T18:06:14.852Z,102393.66
2022-11-12T18:09:15.448Z,102396.19
2022-11-12T18:12:01.214Z,102387.78
2022-11-12T18:14:47.104Z,102386.06
2022-11-12T18:17:36.422Z,102370.09
2022-11-12T18:20:21.680Z,102369.81
2022-11-12T18:23:07.166Z,102367.31
2022-11-12T18:25:52.790Z,102376.13
2022-11-12T18:28:38.140Z,102382.00
2022-11-12T18:31:25.355Z,102375.34
2022-11-12T18:34:14.399Z,102384.81
2022-11-12T18:37:00.133Z,102386.44
2022-11-12T18:39:45.552Z,102398.94
2022-11-12T18:42:30.996Z,102388.25
2022-11-12T18:45:17.177Z,102380.69
2022-11-12T18:48:04.670Z,102368.69
2022-11-12T18:50:50.906Z,102370.28
2022-11-12T18:53:38.131Z,102376.50
2022-11-12T18:56:23.453Z,102374.16
2022-11-12T18:59:11.639Z,102368.72
2022-11-12T19:01:58.171Z,102366.78
2022-11-12T19:04:45.629Z,102362.66
2022-11-12T19:07:31.732Z,102369.22
2022-11-12T19:10:17.494Z,102347.34
2022-11-12T19:13:05.119Z,102371.03
2022-11-12T19:15:50.681Z,102359.34
2022-11-12T19:18:35.841Z,102370.03
2022-11-12T19:21:23.719Z,102370.97
2022-11-12T19:24:09.405Z,102360.94
2022-11-12T19:26:55.017Z,102367.59
2022-11-12T19:29:40.285Z,102363.69
2022-11-12T19:32:25.872Z,102361.47
2022-11-12T19:35:11.294Z,102359.59
2022-11-12T19:37:57.029Z,102356.25
2022-11-12T19:40:42.707Z,102352.63
2022-11-12T19:43:28.629Z,102349.47
2022-11-12T19:46:15.113Z,102365.66
2022-11-12T19:49:00.573Z,102362.16
2022-11-12T19:51:46.153Z,102352.72
2022-11-12T19:54:31.392Z,102364.97
2022-11-12T19:57:16.986Z,102369.34
2022-11-12T20:00:02.280Z,102358.09
2022-11-12T20:02:47.876Z,102356.50
2022-11-12T20:05:33.807Z,102364.91
2022-11-12T20:08:19.084Z,102362.06
2022-11-12T20:11:05.178Z,102372.34
2022-11-12T20:13:53.721Z,102354.94
2022-11-12T20:16:39.624Z,102360.38
2022-11-12T20:19:26.429Z,102368.00
2022-11-12T20:22:12.101Z,102353.34
2022-11-12T20:24:57.956Z,102359.44
2022-11-12T20:27:43.510Z,102350.22
2022-11-12T20:30:28.735Z,102344.25
2022-11-12T20:33:15.413Z,102340.34
2022-11-12T20:36:11.865Z,102332.81
2022-11-12T20:38:57.319Z,102327.59
2022-11-12T20:41:42.878Z,102320.75
2022-11-12T20:44:28.320Z,102324.16
2022-11-12T20:47:13.997Z,102345.47
2022-11-12T20:49:59.167Z,102336.28
2022-11-12T20:52:44.701Z,102340.19
2022-11-12T20:55:32.586Z,102335.88
2022-11-12T20:58:18.150Z,102326.19
2022-11-12T21:01:05.782Z,102332.34
2022-11-12T21:03:51.370Z,102333.13
2022-11-12T21:06:37.264Z,102337.63
2022-11-12T21:09:22.907Z,102326.56
2022-11-12T21:12:08.505Z,102339.88
2022-11-12T21:14:53.651Z,102338.06
2022-11-12T21:17:39.260Z,102343.56
2022-11-12T21:20:24.745Z,102334.78
2022-11-12T21:23:10.277Z,102335.06
2022-11-12T21:25:55.812Z,102341.03
2022-11-12T21:28:46.106Z,102344.66
2022-11-12T21:31:32.599Z,102344.06
2022-11-12T21:34:18.168Z,102340.88
2022-11-12T21:37:03.837Z,102339.53
2022-11-12T21:39:49.563Z,102338.47
2022-11-12T21:42:35.168Z,102340.28
2022-11-12T21:45:20.827Z,102331.03
2022-11-12T21:48:06.304Z,102339.47
2022-11-12T21:50:51.728Z,102343.84
2022-11-12T21:53:36.775Z,102343.09
2022-11-12T21:56:23.111Z,102336.97
2022-11-12T21:59:08.325Z,102339.75
2022-11-12T22:01:53.892Z,102334.19
2022-11-12T22:04:39.621Z,102341.09
2022-11-12T22:07:25.098Z,102332.44
2022-11-12T22:10:10.696Z,102337.47
2022-11-12T22:13:20.201Z,102335.34
2022-11-12T22:16:19.349Z,102336.63
2022-11-12T22:19:04.765Z,102334.31
2022-11-12T22:21:50.390Z,102334.56
2022-11-12T22:24:35.749Z,102333.03
2022-11-12T22:27:21.431Z,102328.91
2022-11-12T22:30:07.476Z,102328.06
2022-11-12T22:32:53.016Z,102320.69
2022-11-12T22:35:38.317Z,102339.56
2022-11-12T22:38:23.755Z,102334.41
2022-11-12T22:41:20.382Z,102337.47
2022-11-12T22:44:05.796Z,102325.84
2022-11-12T22:46:51.326Z,102326.31
2022-11-12T22:49:36.639Z,102316.53
2022-11-12T22:52:22.211Z,102319.13
2022-11-12T22:55:08.286Z,102322.09
2022-11-12T22:57:54.034Z,102326.72
2022-11-12T23:00:40.909Z,102323.53
2022-11-12T23:03:26.574Z,102324.59
2022-11-12T23:06:12.356Z,102307.06
2022-11-12T23:08:59.766Z,102299.69
2022-11-12T23:11:45.201Z,102312.63
2022-11-12T23:14:30.580Z,102303.56
2022-11-12T23:17:16.160Z,102294.44
2022-11-12T23:20:01.799Z,102292.81
2022-11-12T23:22:47.061Z,102277.53
2022-11-12T23:25:36.278Z,102282.78
2022-11-12T23:28:21.800Z,102271.84
2022-11-12T23:31:18.410Z,102272.06
2022-11-12T23:34:04.873Z,102269.88
2022-11-12T23:36:50.038Z,102267.44
2022-11-12T23:39:35.407Z,102261.13
2022-11-12T23:42:20.903Z,102264.75
2022-11-12T23:45:07.009Z,102265.94
2022-11-12T23:47:52.751Z,102263.88
2022-11-12T23:50:38.099Z,102267.50
2022-11-12T23:53:23.512Z,102280.75
2022-11-12T23:56:11.509Z,102269.72
2022-11-12T23:58:57.098Z,102285.28
